createdAt,value
2023-03-06T00:02:53.900Z,59.85
2023-03-06T00:05:57.551Z,60.22
2023-03-06T00:08:59.713Z,60.32
2023-03-06T00:12:01.151Z,60.09
2023-03-06T00:15:05.483Z,59.71
2023-03-06T00:18:07.244Z,59.49
2023-03-06T00:21:08.918Z,59.45
2023-03-06T00:24:10.323Z,59.30
2023-03-06T00:27:11.840Z,60.50
2023-03-06T00:30:15.959Z,60.80
2023-03-06T00:33:17.341Z,60.87
2023-03-06T00:36:18.859Z,60.16
2023-03-06T00:39:20.486Z,60.72
2023-03-06T00:42:22.079Z,60.37
2023-03-06T00:45:23.632Z,59.69
2023-03-06T00:48:25.072Z,59.30
2023-03-06T00:51:26.847Z,58.87
2023-03-06T00:54:28.312Z,59.04
2023-03-06T00:57:29.872Z,58.80
2023-03-06T01:00:32.093Z,59.27
2023-03-06T01:03:33.841Z,59.23
2023-03-06T01:06:35.650Z,59.91
2023-03-06T01:09:38.085Z,60.47
2023-03-06T01:12:39.596Z,60.46
2023-03-06T01:15:41.197Z,59.96
2023-03-06T01:18:42.817Z,60.59
2023-03-06T01:21:44.614Z,60.40
2023-03-06T01:24:46.068Z,60.00
2023-03-06T01:27:48.689Z,60.28
2023-03-06T01:30:51.112Z,60.00
2023-03-06T01:33:53.097Z,60.23
2023-03-06T01:36:54.538Z,59.71
2023-03-06T01:39:56.305Z,59.93
2023-03-06T01:42:57.760Z,59.92
2023-03-06T01:46:41.890Z,60.14
2023-03-06T01:49:43.528Z,60.02
2023-03-06T01:52:52.702Z,60.28
2023-03-06T01:55:55.053Z,60.10
2023-03-06T01:58:58.092Z,60.41
2023-03-06T02:02:01.939Z,60.77
2023-03-06T02:05:05.025Z,60.52
2023-03-06T02:08:07.602Z,60.68
2023-03-06T02:11:14.171Z,60.08
2023-03-06T02:14:17.188Z,60.34
2023-03-06T02:17:21.636Z,60.40
2023-03-06T02:20:32.338Z,60.51
2023-03-06T02:23:47.878Z,60.68
2023-03-06T02:26:50.164Z,60.42
2023-03-06T02:29:51.651Z,60.55
2023-03-06T02:32:53.279Z,60.75
2023-03-06T02:35:59.080Z,60.69
2023-03-06T02:39:01.625Z,60.99
2023-03-06T02:42:03.034Z,60.57
2023-03-06T02:45:11.022Z,60.12
2023-03-06T02:48:14.559Z,60.63
2023-03-06T02:51:16.061Z,60.48
2023-03-06T02:54:18.418Z,60.26
2023-03-06T02:57:20.319Z,60.07
2023-03-06T03:00:22.145Z,60.45
2023-03-06T03:03:23.874Z,60.45
2023-03-06T03:06:27.564Z,60.63
2023-03-06T03:09:29.345Z,61.74
2023-03-06T03:12:32.120Z,61.43
2023-03-06T03:15:34.330Z,61.14
2023-03-06T03:18:36.146Z,61.13
2023-03-06T03:21:38.886Z,60.95
2023-03-06T03:24:40.532Z,61.59
2023-03-06T03:27:41.963Z,61.69
2023-03-06T03:30:44.421Z,61.27
2023-03-06T03:33:47.209Z,61.43
2023-03-06T03:36:49.189Z,61.84
2023-03-06T03:39:51.341Z,62.92
2023-03-06T03:42:52.907Z,62.92
2023-03-06T03:45:55.485Z,62.62
2023-03-06T03:48:58.487Z,61.70
2023-03-06T03:52:01.075Z,62.21
2023-03-06T03:55:06.347Z,62.07
2023-03-06T03:58:07.852Z,61.71
2023-03-06T04:01:09.427Z,61.98
2023-03-06T04:04:11.808Z,61.78
2023-03-06T04:07:14.502Z,61.89
2023-03-06T04:10:16.647Z,62.14
2023-03-06T04:13:20.902Z,61.94
2023-03-06T04:16:23.230Z,62.52
2023-03-06T04:19:25.855Z,62.06
2023-03-06T04:22:28.151Z,61.62
2023-03-06T04:25:29.996Z,61.63
2023-03-06T04:28:33.041Z,61.66
2023-03-06T04:31:34.725Z,61.56
2023-03-06T04:34:36.448Z,61.50
2023-03-06T04:37:37.899Z,61.45
2023-03-06T04:40:40.237Z,61.47
2023-03-06T04:43:41.843Z,61.43
2023-03-06T04:46:43.276Z,61.29
2023-03-06T04:49:44.664Z,61.57
2023-03-06T04:52:46.306Z,61.29
2023-03-06T04:55:47.766Z,61.59
2023-03-06T04:58:49.302Z,61.53
2023-03-06T05:01:51.103Z,61.86
2023-03-06T05:04:52.525Z,61.54
2023-03-06T05:07:54.346Z,61.87
2023-03-06T05:10:58.269Z,61.72
2023-03-06T05:14:00.458Z,61.92
2023-03-06T05:17:01.871Z,61.68
2023-03-06T05:20:06.165Z,62.44
2023-03-06T05:23:07.601Z,62.15
2023-03-06T05:26:11.275Z,62.02
2023-03-06T05:29:12.840Z,61.83
2023-03-06T05:32:16.800Z,61.51
2023-03-06T05:35:21.141Z,61.57
2023-03-06T05:38:23.096Z,61.03
2023-03-06T05:41:24.536Z,61.65
2023-03-06T05:44:31.166Z,62.53
2023-03-06T05:47:32.953Z,62.19
2023-03-06T05:50:34.555Z,61.82
2023-03-06T05:53:35.975Z,61.38
2023-03-06T05:56:37.383Z,61.20
2023-03-06T05:59:38.757Z,61.33
2023-03-06T06:02:41.165Z,61.07
2023-03-06T06:05:42.528Z,60.92
2023-03-06T06:08:44.195Z,61.08
2023-03-06T06:11:45.616Z,60.85
2023-03-06T06:14:47.188Z,61.02
2023-03-06T06:17:48.627Z,61.36
2023-03-06T06:20:50.058Z,60.72
2023-03-06T06:23:51.531Z,60.48
2023-03-06T06:26:54.789Z,60.98
2023-03-06T06:29:56.215Z,60.59
2023-03-06T06:32:57.828Z,60.63
2023-03-06T06:35:59.274Z,60.48
2023-03-06T06:39:00.751Z,60.25
2023-03-06T06:42:26.555Z,60.73
2023-03-06T06:45:25.569Z,60.65
2023-03-06T06:48:26.963Z,60.97
2023-03-06T06:51:32.544Z,61.34
2023-03-06T06:54:34.715Z,61.86
2023-03-06T06:57:36.173Z,61.39
2023-03-06T07:00:37.647Z,62.26
2023-03-06T07:03:40.402Z,62.12
2023-03-06T07:06:42.746Z,62.16
2023-03-06T07:09:44.269Z,62.26
2023-03-06T07:12:45.686Z,61.24
2023-03-06T07:15:47.344Z,61.25
2023-03-06T07:18:48.912Z,60.97
2023-03-06T07:21:50.962Z,60.66
2023-03-06T07:24:52.393Z,60.00
2023-03-06T07:27:54.766Z,60.05
2023-03-06T07:30:56.169Z,59.46
2023-03-06T07:33:57.663Z,59.06
2023-03-06T07:36:59.079Z,59.30
2023-03-06T07:40:00.461Z,59.67
2023-03-06T07:43:18.400Z,59.31
2023-03-06T07:46:24.402Z,59.23
2023-03-06T07:49:25.797Z,58.93
2023-03-06T07:52:27.225Z,59.05
2023-03-06T07:55:28.677Z,58.74
2023-03-06T07:58:30.084Z,58.60
2023-03-06T08:01:31.770Z,58.88
2023-03-06T08:04:34.305Z,58.84
2023-03-06T08:07:35.609Z,59.06
2023-03-06T08:10:37.367Z,58.36
2023-03-06T08:13:39.944Z,57.70
2023-03-06T08:16:41.475Z,57.18
2023-03-06T08:19:42.926Z,57.30
2023-03-06T08:22:45.503Z,57.13
2023-03-06T08:25:55.743Z,56.77
2023-03-06T08:28:59.549Z,56.99
2023-03-06T08:32:01.116Z,56.79
2023-03-06T08:35:06.593Z,56.12
2023-03-06T08:38:08.001Z,55.86
2023-03-06T08:41:09.713Z,56.42
2023-03-06T08:44:11.611Z,56.55
2023-03-06T08:47:13.119Z,55.47
2023-03-06T08:50:14.725Z,56.03
2023-03-06T08:53:16.198Z,55.97
2023-03-06T08:56:23.223Z,55.93
2023-03-06T08:59:25.016Z,56.44
2023-03-06T09:02:26.526Z,55.47
2023-03-06T09:05:28.257Z,55.92
2023-03-06T09:08:29.866Z,55.83
2023-03-06T09:11:31.950Z,55.87
2023-03-06T09:14:33.415Z,56.57
2023-03-06T09:17:34.943Z,56.10
2023-03-06T09:20:36.450Z,55.42
2023-03-06T09:23:39.458Z,54.81
2023-03-06T09:26:45.980Z,54.61
2023-03-06T09:29:48.569Z,54.60
2023-03-06T09:32:50.002Z,54.28
2023-03-06T09:35:56.643Z,54.55
2023-03-06T09:38:58.079Z,54.04
2023-03-06T09:41:59.674Z,54.03
2023-03-06T09:45:02.760Z,53.46
2023-03-06T09:48:13.302Z,54.25
2023-03-06T09:51:18.692Z,53.40
2023-03-06T09:54:43.449Z,54.13
2023-03-06T09:57:51.160Z,53.60
2023-03-06T10:00:54.302Z,53.41
2023-03-06T10:04:04.923Z,53.37
2023-03-06T10:07:43.163Z,53.02
2023-03-06T10:10:50.850Z,53.06
2023-03-06T10:14:00.986Z,52.54
2023-03-06T10:17:03.721Z,52.66
2023-03-06T10:20:22.240Z,52.70
2023-03-06T10:23:54.473Z,52.10
2023-03-06T10:27:23.470Z,51.14
2023-03-06T10:30:39.707Z,51.90
2023-03-06T10:33:51.606Z,51.78
2023-03-06T10:36:53.072Z,51.75
2023-03-06T10:40:08.584Z,51.68
2023-03-06T10:43:12.400Z,52.20
2023-03-06T10:46:27.395Z,51.79
2023-03-06T10:49:37.351Z,51.91
2023-03-06T10:52:38.797Z,52.06
2023-03-06T10:55:40.368Z,51.25
2023-03-06T10:58:41.810Z,50.54
2023-03-06T11:01:49.455Z,50.50
2023-03-06T11:04:54.880Z,50.73
2023-03-06T11:08:01.766Z,51.16
2023-03-06T11:11:03.321Z,51.28
2023-03-06T11:14:15.276Z,50.87
2023-03-06T11:17:32.037Z,50.75
2023-03-06T11:20:52.013Z,49.84
2023-03-06T11:23:57.576Z,50.85
2023-03-06T11:27:05.766Z,50.32
2023-03-06T11:30:19.039Z,49.36
2023-03-06T11:33:31.729Z,49.18
2023-03-06T11:36:59.130Z,49.42
2023-03-06T11:40:43.381Z,48.32
2023-03-06T11:44:00.743Z,49.03
2023-03-06T11:47:15.295Z,49.20
2023-03-06T11:50:31.519Z,49.26
2023-03-06T11:53:39.344Z,49.13
2023-03-06T11:56:49.726Z,49.13
2023-03-06T12:00:16.991Z,49.66
2023-03-06T12:03:45.705Z,49.69
2023-03-06T12:07:07.648Z,49.31
2023-03-06T12:10:29.929Z,48.93
2023-03-06T12:13:57.133Z,49.03
2023-03-06T12:17:30.500Z,49.25
2023-03-06T12:20:42.501Z,48.49
2023-03-06T12:23:50.098Z,47.90
2023-03-06T12:27:17.930Z,49.04
2023-03-06T12:31:02.316Z,48.14
2023-03-06T12:34:15.556Z,48.18
2023-03-06T12:37:35.541Z,47.59
2023-03-06T12:41:04.426Z,47.32
2023-03-06T12:44:16.929Z,47.18
2023-03-06T12:47:20.946Z,47.15
2023-03-06T12:50:28.726Z,47.74
2023-03-06T12:53:32.014Z,48.27
2023-03-06T12:56:35.294Z,48.10
2023-03-06T12:59:48.002Z,47.76
2023-03-06T13:03:15.060Z,48.86
2023-03-06T13:06:34.227Z,48.90
2023-03-06T13:10:08.554Z,48.79
2023-03-06T13:13:42.689Z,50.09
2023-03-06T13:16:44.306Z,50.93
2023-03-06T13:19:46.235Z,51.20
2023-03-06T13:22:47.944Z,52.13
2023-03-06T13:25:50.521Z,54.38
2023-03-06T13:28:57.809Z,55.38
2023-03-06T13:32:02.400Z,55.67
2023-03-06T13:35:47.390Z,55.20
2023-03-06T13:38:48.751Z,55.69
2023-03-06T13:42:00.766Z,56.16
2023-03-06T13:45:25.731Z,55.25
2023-03-06T13:48:44.631Z,56.47
2023-03-06T13:52:06.188Z,56.34
2023-03-06T13:55:29.583Z,55.83
2023-03-06T13:58:49.072Z,55.38
2023-03-06T14:02:12.504Z,55.92
2023-03-06T14:05:15.685Z,56.71
2023-03-06T14:08:37.453Z,55.72
2023-03-06T14:11:45.775Z,54.85
2023-03-06T14:14:57.660Z,54.54
2023-03-06T14:18:01.014Z,53.87
2023-03-06T14:21:13.161Z,54.34
2023-03-06T14:24:20.068Z,54.38
2023-03-06T14:27:38.453Z,54.31
2023-03-06T14:30:49.821Z,54.28
2023-03-06T14:33:56.802Z,54.03
2023-03-06T14:37:01.648Z,54.14
2023-03-06T14:40:10.842Z,53.53
2023-03-06T14:43:22.723Z,53.01
2023-03-06T14:46:24.174Z,53.72
2023-03-06T14:49:26.858Z,52.70
2023-03-06T14:52:28.572Z,53.17
2023-03-06T14:55:32.172Z,52.77
2023-03-06T14:58:40.898Z,52.06
2023-03-06T15:01:46.177Z,51.40
2023-03-06T15:04:53.169Z,52.02
2023-03-06T15:08:00.140Z,50.52
2023-03-06T15:11:05.333Z,50.98
2023-03-06T15:14:18.418Z,50.54
2023-03-06T15:17:19.856Z,50.63
2023-03-06T15:20:41.935Z,50.54
2023-03-06T15:23:45.658Z,50.20
2023-03-06T15:26:54.504Z,50.19
2023-03-06T15:29:59.638Z,49.92
2023-03-06T15:33:19.533Z,50.52
2023-03-06T15:36:29.484Z,50.22
2023-03-06T15:39:39.887Z,50.89
2023-03-06T15:42:42.440Z,50.04
2023-03-06T15:45:43.840Z,50.77
2023-03-06T15:48:53.514Z,50.41
2023-03-06T15:51:54.972Z,50.75
2023-03-06T15:54:56.385Z,49.97
2023-03-06T15:58:00.900Z,50.47
2023-03-06T16:01:03.645Z,51.10
2023-03-06T16:04:05.243Z,50.22
2023-03-06T16:07:06.668Z,50.68
2023-03-06T16:10:17.223Z,50.05
2023-03-06T16:13:26.923Z,50.59
2023-03-06T16:16:37.736Z,51.11
2023-03-06T16:19:39.865Z,51.35
2023-03-06T16:22:41.346Z,51.47
2023-03-06T16:25:48.477Z,50.88
2023-03-06T16:28:50.055Z,51.33
2023-03-06T16:31:51.953Z,51.60
2023-03-06T16:34:53.341Z,51.47
2023-03-06T16:37:54.760Z,51.60
2023-03-06T16:40:56.184Z,51.13
2023-03-06T16:43:57.631Z,51.82
2023-03-06T16:47:00.792Z,51.04
2023-03-06T16:50:03.343Z,51.69
2023-03-06T16:53:05.366Z,51.34
2023-03-06T16:56:09.372Z,51.08
2023-03-06T16:59:12.176Z,51.62
2023-03-06T17:02:13.642Z,52.37
2023-03-06T17:05:15.099Z,52.75
2023-03-06T17:08:16.546Z,52.88
2023-03-06T17:11:20.202Z,52.93
2023-03-06T17:14:21.773Z,53.66
2023-03-06T17:17:23.189Z,54.50
2023-03-06T17:20:24.843Z,55.98
2023-03-06T17:23:29.588Z,55.93
2023-03-06T17:26:31.290Z,56.36
2023-03-06T17:29:32.865Z,57.48
2023-03-06T17:32:34.401Z,56.29
2023-03-06T17:35:36.699Z,58.31
2023-03-06T17:38:38.238Z,58.47
2023-03-06T17:41:39.726Z,58.46
2023-03-06T17:44:41.444Z,58.51
2023-03-06T17:47:43.017Z,58.05
2023-03-06T17:50:52.727Z,58.99
2023-03-06T17:53:55.509Z,58.54
2023-03-06T17:57:03.234Z,60.17
2023-03-06T18:00:05.821Z,60.46
2023-03-06T18:03:13.545Z,59.54
2023-03-06T18:06:16.064Z,61.16
2023-03-06T18:09:17.578Z,60.11
2023-03-06T18:12:19.062Z,59.37
2023-03-06T18:15:20.497Z,60.53
2023-03-06T18:18:22.022Z,61.31
2023-03-06T18:21:24.030Z,62.32
2023-03-06T18:24:25.570Z,60.59
2023-03-06T18:27:27.119Z,60.49
2023-03-06T18:30:28.727Z,59.75
2023-03-06T18:33:30.150Z,60.26
2023-03-06T18:36:33.627Z,61.21
2023-03-06T18:39:35.173Z,60.76
2023-03-06T18:42:36.743Z,60.90
2023-03-06T18:45:38.200Z,59.37
2023-03-06T18:48:39.861Z,59.92
2023-03-06T18:51:42.636Z,58.93
2023-03-06T18:54:44.873Z,59.21
2023-03-06T18:57:46.311Z,58.12
2023-03-06T19:00:48.462Z,59.52
2023-03-06T19:03:50.121Z,59.10
2023-03-06T19:06:51.742Z,58.86
2023-03-06T19:09:53.165Z,59.54
2023-03-06T19:12:54.584Z,59.28
2023-03-06T19:15:57.066Z,59.06
2023-03-06T19:18:59.125Z,58.10
2023-03-06T19:22:00.535Z,59.34
2023-03-06T19:25:03.838Z,59.43
2023-03-06T19:28:05.847Z,59.99
2023-03-06T19:31:09.276Z,58.41
2023-03-06T19:34:10.776Z,58.52
2023-03-06T19:37:12.238Z,58.13
2023-03-06T19:40:13.858Z,57.60
2023-03-06T19:43:15.306Z,56.87
2023-03-06T19:46:16.965Z,57.32
2023-03-06T19:49:21.632Z,57.79
2023-03-06T19:52:24.583Z,57.73
2023-03-06T19:55:28.469Z,57.12
2023-03-06T19:58:29.949Z,57.11
2023-03-06T20:01:31.382Z,57.38
2023-03-06T20:04:34.080Z,58.11
2023-03-06T20:07:35.528Z,58.89
2023-03-06T20:10:37.055Z,57.90
2023-03-06T20:13:44.604Z,57.93
2023-03-06T20:16:48.615Z,58.01
2023-03-06T20:19:50.042Z,57.27
2023-03-06T20:22:51.484Z,57.09
2023-03-06T20:25:52.916Z,56.86
2023-03-06T20:28:54.788Z,56.30
2023-03-06T20:31:57.707Z,56.63
2023-03-06T20:34:59.268Z,55.94
2023-03-06T20:38:00.680Z,56.48
2023-03-06T20:41:03.004Z,55.56
2023-03-06T20:44:06.141Z,56.48
2023-03-06T20:47:08.845Z,56.27
2023-03-06T20:50:10.949Z,55.67
2023-03-06T20:53:12.361Z,56.53
2023-03-06T20:56:16.149Z,55.19
2023-03-06T20:59:18.142Z,55.68
2023-03-06T21:02:19.674Z,56.16
2023-03-06T21:05:21.121Z,55.92
2023-03-06T21:08:23.128Z,55.51
2023-03-06T21:11:25.424Z,55.48
2023-03-06T21:14:26.842Z,56.11
2023-03-06T21:17:30.070Z,55.99
2023-03-06T21:20:32.328Z,55.47
2023-03-06T21:23:33.870Z,56.04
2023-03-06T21:26:35.482Z,55.21
2023-03-06T21:29:36.899Z,55.41
2023-03-06T21:32:38.348Z,55.48
2023-03-06T21:35:41.479Z,55.33
2023-03-06T21:38:42.924Z,55.63
2023-03-06T21:41:44.380Z,56.08
2023-03-06T21:44:45.920Z,55.88
2023-03-06T21:47:50.501Z,55.42
2023-03-06T21:50:52.075Z,55.58
2023-03-06T21:53:54.904Z,56.25
2023-03-06T21:56:56.855Z,55.13
2023-03-06T21:59:58.235Z,54.98
2023-03-06T22:02:59.746Z,55.23
2023-03-06T22:06:28.103Z,54.99
2023-03-06T22:09:29.773Z,55.32
2023-03-06T22:12:34.072Z,55.26
2023-03-06T22:15:35.548Z,56.10
2023-03-06T22:18:38.659Z,56.34
2023-03-06T22:21:40.129Z,56.76
2023-03-06T22:24:41.652Z,56.42
2023-03-06T22:27:43.145Z,56.13
2023-03-06T22:30:45.745Z,56.70
2023-03-06T22:33:51.278Z,55.41
2023-03-06T22:36:52.921Z,54.99
2023-03-06T22:39:54.577Z,55.21
2023-03-06T22:42:56.103Z,55.10
2023-03-06T22:46:02.159Z,55.12
2023-03-06T22:49:03.677Z,55.50
2023-03-06T22:52:05.312Z,55.74
2023-03-06T22:55:07.040Z,54.68
2023-03-06T22:58:08.465Z,54.64
2023-03-06T23:01:25.143Z,54.56
2023-03-06T23:04:26.729Z,55.93
2023-03-06T23:07:28.296Z,54.98
2023-03-06T23:10:39.399Z,55.60
2023-03-06T23:13:59.362Z,54.44
2023-03-06T23:17:19.524Z,55.02
2023-03-06T23:20:43.515Z,55.66
2023-03-06T23:24:04.422Z,54.85
2023-03-06T23:27:05.854Z,54.81
2023-03-06T23:30:09.298Z,54.84
2023-03-06T23:33:10.978Z,54.40
2023-03-06T23:36:14.508Z,55.06
2023-03-06T23:39:16.695Z,55.00
2023-03-06T23:42:19.111Z,54.84
2023-03-06T23:45:20.578Z,55.46
2023-03-06T23:48:22.432Z,55.03
2023-03-06T23:51:23.996Z,55.11
2023-03-06T23:54:25.440Z,55.31
2023-03-06T23:57:26.846Z,55.91
